Time;durP1;ratioP1;P1;durP2;ratioP2;P2;SDS_P1;SDS_P2;PMS_P1;PMS_P2;Temp;Humidity;BMP_temperature;BMP_pressure;BME280_temperature;BME280_humidity;BME280_pressure;Samples;Min_cycle;Max_cycle;Signal;HPM_P1;HPM_P2
2022/01/02 00:01:10;;;;;;;;;;;12.10;99.90;;;;;;4261038;33;20450;-82
2022/01/02 00:03:39;;;;;;;;;;;12.10;99.90;;;;;;4261660;33;20401;-82
2022/01/02 00:06:07;;;;;;;;;;;12.10;99.90;;;;;;4263833;33;20010;-82
2022/01/02 00:08:39;;;;;;;;;;;12.00;99.90;;;;;;4263496;33;20019;-82
2022/01/02 00:11:11;;;;;;;;;;;12.10;99.90;;;;;;4263855;33;20015;-83
2022/01/02 00:13:45;;;;;;;;;;;12.00;99.90;;;;;;4263856;33;19999;-82
2022/01/02 00:16:16;;;;;;;;;;;12.10;99.90;;;;;;4263616;33;20009;-82
2022/01/02 00:19:02;;;;;;;;;;;12.00;99.90;;;;;;4263385;33;37115;-82
2022/01/02 00:21:31;;;;;;;;;;;12.10;99.90;;;;;;4263713;33;20025;-83
2022/01/02 00:24:04;;;;;;;;;;;12.10;99.90;;;;;;4275590;33;29019;-82
2022/01/02 00:26:45;;;;;;;;;;;12.10;99.90;;;;;;4262826;33;37918;-82
2022/01/02 00:29:12;;;;;;;;;;;12.10;99.90;;;;;;4262451;33;42031;-82
2022/01/02 00:31:40;;;;;;;;;;;12.10;99.90;;;;;;4262078;33;44449;-82
2022/01/02 00:34:08;;;;;;;;;;;12.10;99.90;;;;;;4261954;33;40152;-82
2022/01/02 00:36:35;;;;;;;;;;;12.10;99.90;;;;;;4275257;33;24757;-82
2022/01/02 00:39:03;;;;;;;;;;;12.10;99.90;;;;;;4262462;33;33586;-82
2022/01/02 00:41:48;;;;;;;;;;;12.10;99.90;;;;;;4262395;33;42041;-82
2022/01/02 00:44:34;;;;;;;;;;;12.10;99.90;;;;;;4263439;33;20021;-82
2022/01/02 00:47:19;;;;;;;;;;;12.10;99.90;;;;;;4250562;33;35760;-82
2022/01/02 00:49:58;;;;;;;;;;;12.10;99.90;;;;;;4262078;33;38407;-82
2022/01/02 00:52:27;;;;;;;;;;;12.10;99.90;;;;;;4250609;33;29181;-82
2022/01/02 00:54:55;;;;;;;;;;;12.10;99.90;;;;;;4274883;33;42826;-83
2022/01/02 00:57:27;;;;;;;;;;;12.10;99.90;;;;;;4261799;33;41129;-82
2022/01/02 01:00:02;;;;;;;;;;;12.10;99.90;;;;;;4250778;33;31054;-82
2022/01/02 01:02:34;;;;;;;;;;;12.10;99.90;;;;;;4262070;33;34869;-82
2022/01/02 01:05:02;;;;;;;;;;;12.10;99.90;;;;;;4276205;33;20450;-82
2022/01/02 01:07:30;;;;;;;;;;;12.10;99.90;;;;;;4262508;33;20006;-82
2022/01/02 01:09:59;;;;;;;;;;;12.10;99.90;;;;;;4262745;33;20015;-82
2022/01/02 01:12:28;;;;;;;;;;;12.10;99.90;;;;;;4275341;33;20050;-82
2022/01/02 01:15:00;;;;;;;;;;;12.10;99.90;;;;;;4263269;33;20070;-82
2022/01/02 01:17:27;;;;;;;;;;;12.10;99.90;;;;;;4262533;33;20360;-82
2022/01/02 01:19:54;;;;;;;;;;;12.10;99.90;;;;;;4262097;33;20022;-82
2022/01/02 01:22:24;;;;;;;;;;;12.10;99.90;;;;;;4275843;33;20025;-82
2022/01/02 01:24:51;;;;;;;;;;;12.00;99.90;;;;;;4262783;33;20020;-82
2022/01/02 01:27:19;;;;;;;;;;;12.10;99.90;;;;;;4261542;33;45512;-82
2022/01/02 01:29:46;;;;;;;;;;;12.00;99.90;;;;;;4261786;33;28787;-82
2022/01/02 01:32:13;;;;;;;;;;;12.00;99.90;;;;;;4274467;33;42914;-82
2022/01/02 01:34:40;;;;;;;;;;;12.00;99.90;;;;;;4261919;33;38178;-82
2022/01/02 01:37:07;;;;;;;;;;;12.10;99.90;;;;;;4261733;33;40978;-82
2022/01/02 01:39:34;;;;;;;;;;;12.10;99.90;;;;;;4261109;33;42430;-82
2022/01/02 01:42:10;;;;;;;;;;;12.00;99.90;;;;;;4261906;33;44967;-82
2022/01/02 01:45:03;;;;;;;;;;;12.10;99.90;;;;;;4261113;33;44506;-82
2022/01/02 01:47:28;;;;;;;;;;;12.10;99.90;;;;;;4262793;33;20015;-82
2022/01/02 01:49:55;;;;;;;;;;;12.10;99.90;;;;;;4274132;33;34730;-82
2022/01/02 01:52:22;;;;;;;;;;;12.00;99.90;;;;;;4274362;33;36150;-82
2022/01/02 01:54:52;;;;;;;;;;;12.00;99.90;;;;;;4262598;33;20022;-82
2022/01/02 01:57:21;;;;;;;;;;;12.00;99.90;;;;;;4274199;33;22950;-82
2022/01/02 01:59:49;;;;;;;;;;;12.10;99.90;;;;;;4261280;33;35187;-82
2022/01/02 02:02:19;;;;;;;;;;;12.10;99.90;;;;;;4261090;33;31625;-82
2022/01/02 02:04:46;;;;;;;;;;;12.00;99.90;;;;;;4274195;33;35107;-81
2022/01/02 02:07:15;;;;;;;;;;;12.10;99.90;;;;;;4260891;33;45200;-82
2022/01/02 02:12:15;;;;;;;;;;;12.00;99.90;;;;;;4275022;33;20006;-82
2022/01/02 02:14:42;;;;;;;;;;;12.10;99.90;;;;;;4261770;33;28889;-82
2022/01/02 02:17:09;;;;;;;;;;;12.10;99.90;;;;;;4260876;33;38954;-82
2022/01/02 02:19:36;;;;;;;;;;;12.10;99.90;;;;;;4274181;33;30949;-82
2022/01/02 02:22:03;;;;;;;;;;;12.10;99.90;;;;;;4261613;33;28092;-82
2022/01/02 02:24:31;;;;;;;;;;;12.10;99.90;;;;;;4272416;33;37185;-82
2022/01/02 02:27:01;;;;;;;;;;;12.00;99.90;;;;;;4261856;33;20014;-82
2022/01/02 02:29:31;;;;;;;;;;;12.00;99.90;;;;;;4261624;33;20034;-82
2022/01/02 02:31:58;;;;;;;;;;;12.00;99.90;;;;;;4261571;33;32137;-82
2022/01/02 02:34:26;;;;;;;;;;;12.00;99.90;;;;;;4261205;33;26850;-82
2022/01/02 02:36:53;;;;;;;;;;;12.00;99.90;;;;;;4262030;33;20372;-82
2022/01/02 02:39:20;;;;;;;;;;;12.10;99.90;;;;;;4273467;33;29633;-82
2022/01/02 02:41:47;;;;;;;;;;;12.00;99.90;;;;;;4261143;33;36987;-82
2022/01/02 02:44:35;;;;;;;;;;;12.00;99.90;;;;;;4260683;33;31884;-82
2022/01/02 02:49:50;;;;;;;;;;;12.00;99.90;;;;;;4273781;33;33667;-82
2022/01/02 02:52:42;;;;;;;;;;;12.00;99.90;;;;;;4248519;33;42373;-82
2022/01/02 02:55:08;;;;;;;;;;;12.00;99.90;;;;;;4273386;33;38496;-82
2022/01/02 02:57:38;;;;;;;;;;;12.00;99.90;;;;;;4260835;33;34570;-82
2022/01/02 03:00:08;;;;;;;;;;;12.00;99.90;;;;;;4260000;33;44214;-81
2022/01/02 03:02:35;;;;;;;;;;;12.00;99.90;;;;;;4257482;33;43626;-82
2022/01/02 03:05:02;;;;;;;;;;;12.10;99.90;;;;;;4257954;33;35304;-82
2022/01/02 03:07:29;;;;;;;;;;;12.00;99.90;;;;;;4258598;33;29993;-82
2022/01/02 03:09:58;;;;;;;;;;;12.00;99.90;;;;;;4258409;33;33600;-82
2022/01/02 03:12:25;;;;;;;;;;;12.00;99.90;;;;;;4258531;33;20015;-82
2022/01/02 03:14:53;;;;;;;;;;;12.00;99.90;;;;;;4260013;33;20014;-82
2022/01/02 03:17:20;;;;;;;;;;;12.00;99.90;;;;;;4258024;33;31828;-82
2022/01/02 03:19:47;;;;;;;;;;;12.00;99.90;;;;;;4260058;33;20006;-82
2022/01/02 03:22:14;;;;;;;;;;;12.00;99.90;;;;;;4258305;33;32789;-82
2022/01/02 03:24:41;;;;;;;;;;;12.00;99.90;;;;;;4245802;33;36935;-82
2022/01/02 03:27:08;;;;;;;;;;;12.00;99.90;;;;;;4257925;33;22880;-82
2022/01/02 03:29:35;;;;;;;;;;;12.00;99.90;;;;;;4258633;33;41071;-83
2022/01/02 03:32:02;;;;;;;;;;;12.00;99.90;;;;;;4245555;33;44049;-82
2022/01/02 03:34:30;;;;;;;;;;;12.00;99.90;;;;;;4258098;33;37152;-82
2022/01/02 03:36:57;;;;;;;;;;;12.00;99.90;;;;;;4245516;33;41099;-82
2022/01/02 03:39:26;;;;;;;;;;;11.90;99.90;;;;;;4257281;33;46981;-82
2022/01/02 03:41:54;;;;;;;;;;;11.90;99.90;;;;;;4257616;33;32661;-81
2022/01/02 03:44:21;;;;;;;;;;;11.90;99.90;;;;;;4258100;33;27062;-82
2022/01/02 03:46:50;;;;;;;;;;;11.90;99.90;;;;;;4258467;33;36847;-82
2022/01/02 03:49:18;;;;;;;;;;;11.90;99.90;;;;;;4257460;33;39967;-82
2022/01/02 03:51:47;;;;;;;;;;;11.90;99.90;;;;;;4257144;33;44562;-82
2022/01/02 03:54:18;;;;;;;;;;;11.90;99.90;;;;;;4257797;33;37367;-82
2022/01/02 03:56:47;;;;;;;;;;;11.90;99.90;;;;;;4258147;33;44528;-82
2022/01/02 03:59:16;;;;;;;;;;;11.90;99.90;;;;;;4258348;33;43256;-82
2022/01/02 04:01:45;;;;;;;;;;;11.90;99.90;;;;;;4256830;33;42773;-82
2022/01/02 04:04:12;;;;;;;;;;;11.90;99.90;;;;;;4257644;33;24303;-82
2022/01/02 04:06:40;;;;;;;;;;;11.90;99.90;;;;;;4257294;33;41872;-82
2022/01/02 04:09:07;;;;;;;;;;;11.90;99.90;;;;;;4257210;33;38844;-82
2022/01/02 04:11:34;;;;;;;;;;;11.90;99.90;;;;;;4258454;33;35579;-82
2022/01/02 04:14:01;;;;;;;;;;;11.90;99.90;;;;;;4257800;33;30205;-81
2022/01/02 04:16:28;;;;;;;;;;;11.90;99.90;;;;;;4257491;33;40395;-82
2022/01/02 04:18:55;;;;;;;;;;;11.90;99.90;;;;;;4257305;33;31455;-82
2022/01/02 04:21:22;;;;;;;;;;;11.90;99.90;;;;;;4256977;33;39427;-82
2022/01/02 04:23:49;;;;;;;;;;;11.90;99.90;;;;;;4258542;33;40359;-82
2022/01/02 04:26:16;;;;;;;;;;;11.90;99.90;;;;;;4257459;33;32530;-82
2022/01/02 04:28:43;;;;;;;;;;;11.90;99.90;;;;;;4245579;33;39956;-82
2022/01/02 04:31:11;;;;;;;;;;;11.90;99.90;;;;;;4259376;33;20011;-82
2022/01/02 04:33:39;;;;;;;;;;;11.90;99.90;;;;;;4258754;33;34166;-82
2022/01/02 04:36:06;;;;;;;;;;;11.90;99.90;;;;;;4257027;33;40588;-81
2022/01/02 04:38:34;;;;;;;;;;;11.90;99.90;;;;;;4257299;33;39343;-82
2022/01/02 04:41:01;;;;;;;;;;;11.90;99.90;;;;;;4245567;33;21893;-82
2022/01/02 04:43:28;;;;;;;;;;;11.80;99.90;;;;;;4258352;33;36688;-81
2022/01/02 04:45:56;;;;;;;;;;;11.80;99.90;;;;;;4256875;33;45665;-82
2022/01/02 04:48:23;;;;;;;;;;;11.80;99.90;;;;;;4257992;33;36979;-82
2022/01/02 04:50:50;;;;;;;;;;;11.80;99.90;;;;;;4258059;33;42492;-82
2022/01/02 04:53:19;;;;;;;;;;;11.80;99.90;;;;;;4260891;33;39626;-82
2022/01/02 04:55:47;;;;;;;;;;;11.80;99.90;;;;;;4259783;33;41942;-82
2022/01/02 04:58:14;;;;;;;;;;;11.80;99.90;;;;;;4259557;33;43374;-82
2022/01/02 05:00:41;;;;;;;;;;;11.80;99.90;;;;;;4259543;33;34242;-82
2022/01/02 05:03:11;;;;;;;;;;;11.80;99.90;;;;;;4270920;33;44627;-82
2022/01/02 05:05:38;;;;;;;;;;;11.80;99.90;;;;;;4261621;33;43744;-82
2022/01/02 05:08:06;;;;;;;;;;;11.80;99.90;;;;;;4261906;33;34683;-82
2022/01/02 05:10:33;;;;;;;;;;;11.80;99.90;;;;;;4261537;33;41433;-82
2022/01/02 05:13:03;;;;;;;;;;;11.80;99.90;;;;;;4262184;33;33609;-82
2022/01/02 05:15:30;;;;;;;;;;;11.80;99.90;;;;;;4261891;33;35126;-82
2022/01/02 05:17:57;;;;;;;;;;;11.80;99.90;;;;;;4275649;33;20413;-82
2022/01/02 05:20:28;;;;;;;;;;;11.80;99.90;;;;;;4262238;33;22485;-83
2022/01/02 05:22:55;;;;;;;;;;;11.80;99.90;;;;;;4275253;33;27429;-82
2022/01/02 05:25:22;;;;;;;;;;;11.80;99.90;;;;;;4261547;33;37795;-82
2022/01/02 05:27:52;;;;;;;;;;;11.80;99.90;;;;;;4263221;33;20515;-81
2022/01/02 05:30:19;;;;;;;;;;;11.80;99.90;;;;;;4261707;33;41623;-82
2022/01/02 05:32:46;;;;;;;;;;;11.80;99.90;;;;;;4261673;33;40640;-82
2022/01/02 05:35:15;;;;;;;;;;;11.80;99.90;;;;;;4261726;33;34999;-82
2022/01/02 05:37:43;;;;;;;;;;;11.70;99.90;;;;;;4261470;33;34066;-82
2022/01/02 05:40:10;;;;;;;;;;;11.70;99.90;;;;;;4261266;33;39700;-82
2022/01/02 05:42:40;;;;;;;;;;;11.70;99.90;;;;;;4261668;33;44236;-82
2022/01/02 05:45:07;;;;;;;;;;;11.70;99.90;;;;;;4261312;33;44561;-82
2022/01/02 05:47:36;;;;;;;;;;;11.70;99.90;;;;;;4274422;33;34942;-82
2022/01/02 05:50:07;;;;;;;;;;;11.70;99.90;;;;;;4261245;33;34230;-82
2022/01/02 05:52:39;;;;;;;;;;;11.70;99.90;;;;;;4261588;33;40997;-82
2022/01/02 05:55:06;;;;;;;;;;;11.70;99.90;;;;;;4261507;33;45103;-82
2022/01/02 05:57:33;;;;;;;;;;;11.70;99.90;;;;;;4261197;33;37540;-82
2022/01/02 06:00:01;;;;;;;;;;;11.70;99.90;;;;;;4261254;33;33240;-82
2022/01/02 06:02:30;;;;;;;;;;;11.70;99.90;;;;;;4260714;33;43106;-82
2022/01/02 06:04:58;;;;;;;;;;;11.70;99.90;;;;;;4261880;33;30651;-82
2022/01/02 06:07:25;;;;;;;;;;;11.70;99.90;;;;;;4261305;33;35456;-82
2022/01/02 06:09:52;;;;;;;;;;;11.70;99.90;;;;;;4274790;33;20018;-82
2022/01/02 06:12:19;;;;;;;;;;;11.70;99.90;;;;;;4262392;33;20407;-82
2022/01/02 06:14:47;;;;;;;;;;;11.70;99.90;;;;;;4261717;33;20030;-83
2022/01/02 06:17:14;;;;;;;;;;;11.70;99.90;;;;;;4261554;33;20018;-82
2022/01/02 06:19:41;;;;;;;;;;;11.70;99.90;;;;;;4261360;33;40946;-82
2022/01/02 06:22:16;;;;;;;;;;;11.70;99.90;;;;;;4262113;33;20054;-82
2022/01/02 06:24:43;;;;;;;;;;;11.70;99.90;;;;;;4262566;33;20011;-82
2022/01/02 06:27:13;;;;;;;;;;;11.70;99.90;;;;;;4274625;33;20054;-82
2022/01/02 06:29:42;;;;;;;;;;;11.70;99.90;;;;;;4262216;33;20149;-82
2022/01/02 06:32:09;;;;;;;;;;;11.70;99.90;;;;;;4261604;33;20070;-82
2022/01/02 06:34:37;;;;;;;;;;;11.70;99.90;;;;;;4262140;33;20021;-82
2022/01/02 06:37:04;;;;;;;;;;;11.70;99.90;;;;;;4262163;33;20029;-82
2022/01/02 06:39:31;;;;;;;;;;;11.70;99.90;;;;;;4262141;33;20015;-82
2022/01/02 06:42:01;;;;;;;;;;;11.70;99.90;;;;;;4261782;33;20087;-83
2022/01/02 06:44:28;;;;;;;;;;;11.70;99.90;;;;;;4261285;33;20014;-82
2022/01/02 06:46:55;;;;;;;;;;;11.70;99.90;;;;;;4261341;33;20007;-82
2022/01/02 06:49:22;;;;;;;;;;;11.70;99.90;;;;;;4261871;33;20074;-82
2022/01/02 06:51:49;;;;;;;;;;;11.70;99.90;;;;;;4261837;33;20010;-82
2022/01/02 06:54:19;;;;;;;;;;;11.70;99.90;;;;;;4261492;33;20003;-82
2022/01/02 06:56:46;;;;;;;;;;;11.70;99.90;;;;;;4261684;33;20020;-83
2022/01/02 06:59:17;;;;;;;;;;;11.70;99.90;;;;;;4261797;33;20042;-82
2022/01/02 07:01:44;;;;;;;;;;;11.70;99.90;;;;;;4261198;33;20027;-82
2022/01/02 07:04:12;;;;;;;;;;;11.70;99.90;;;;;;4261661;33;20015;-82
2022/01/02 07:06:39;;;;;;;;;;;11.70;99.90;;;;;;4261268;33;20002;-82
2022/01/02 07:09:09;;;;;;;;;;;11.70;99.90;;;;;;4274242;33;20025;-84
2022/01/02 07:11:39;;;;;;;;;;;11.70;99.90;;;;;;4261804;33;20013;-82
2022/01/02 07:14:06;;;;;;;;;;;11.70;99.90;;;;;;4261142;33;20055;-82
2022/01/02 07:16:33;;;;;;;;;;;11.70;99.90;;;;;;4260568;33;20014;-81
2022/01/02 07:19:03;;;;;;;;;;;11.70;99.90;;;;;;4261388;33;20089;-82
2022/01/02 07:21:30;;;;;;;;;;;11.70;99.90;;;;;;4261269;33;20077;-82
2022/01/02 07:24:03;;;;;;;;;;;11.70;99.90;;;;;;4260711;33;20012;-82
2022/01/02 07:26:30;;;;;;;;;;;11.70;99.90;;;;;;4261541;33;20093;-82
2022/01/02 07:29:01;;;;;;;;;;;11.70;99.90;;;;;;4261145;33;20021;-82
2022/01/02 07:31:28;;;;;;;;;;;11.70;99.90;;;;;;4260658;33;20012;-82
2022/01/02 07:33:57;;;;;;;;;;;11.70;99.90;;;;;;4261322;33;20073;-82
2022/01/02 07:36:25;;;;;;;;;;;11.70;99.90;;;;;;4260937;33;19999;-82
2022/01/02 07:38:52;;;;;;;;;;;11.70;99.90;;;;;;4261570;33;20464;-82
2022/01/02 07:41:19;;;;;;;;;;;11.70;99.90;;;;;;4260851;33;20003;-82
2022/01/02 07:43:54;;;;;;;;;;;11.70;99.90;;;;;;4260690;33;20021;-82
2022/01/02 07:46:21;;;;;;;;;;;11.70;99.90;;;;;;4260849;33;20005;-82
2022/01/02 07:48:52;;;;;;;;;;;11.70;99.90;;;;;;4273964;33;20006;-83
2022/01/02 07:51:21;;;;;;;;;;;11.70;99.90;;;;;;4260902;33;20102;-82
2022/01/02 07:53:51;;;;;;;;;;;11.70;99.90;;;;;;4273703;33;20000;-82
2022/01/02 07:56:24;;;;;;;;;;;11.70;99.90;;;;;;4260463;33;20058;-82
2022/01/02 07:58:51;;;;;;;;;;;11.70;99.90;;;;;;4261020;33;20506;-82
2022/01/02 08:01:19;;;;;;;;;;;11.70;99.90;;;;;;4273403;33;20024;-82
2022/01/02 08:03:46;;;;;;;;;;;11.70;99.90;;;;;;4260618;33;20357;-82
2022/01/02 08:06:14;;;;;;;;;;;11.70;99.90;;;;;;4274107;33;20026;-82
2022/01/02 08:08:43;;;;;;;;;;;11.70;99.90;;;;;;4260718;33;20073;-82
2022/01/02 08:11:17;;;;;;;;;;;11.70;99.90;;;;;;4273913;33;20011;-82
2022/01/02 08:14:06;;;;;;;;;;;11.70;99.90;;;;;;4273781;33;19995;-82
2022/01/02 08:16:39;;;;;;;;;;;11.80;99.90;;;;;;4260749;33;19998;-82
2022/01/02 08:19:12;;;;;;;;;;;11.80;99.90;;;;;;4274044;33;19998;-81
2022/01/02 08:21:42;;;;;;;;;;;11.80;99.90;;;;;;4260515;33;20009;-82
2022/01/02 08:24:09;;;;;;;;;;;11.80;99.90;;;;;;4260258;33;20019;-81
2022/01/02 08:26:36;;;;;;;;;;;11.80;99.90;;;;;;4262308;33;20079;-81
2022/01/02 08:29:03;;;;;;;;;;;11.80;99.90;;;;;;4275946;33;20015;-81
2022/01/02 08:31:31;;;;;;;;;;;11.80;99.90;;;;;;4263392;33;20078;-82
2022/01/02 08:34:01;;;;;;;;;;;11.80;99.90;;;;;;4263317;33;20393;-82
2022/01/02 08:36:28;;;;;;;;;;;11.80;99.90;;;;;;4262319;33;43358;-81
2022/01/02 08:38:55;;;;;;;;;;;11.80;99.90;;;;;;4263162;33;20007;-81
2022/01/02 08:41:22;;;;;;;;;;;11.80;99.90;;;;;;4262889;33;33769;-81
2022/01/02 08:43:49;;;;;;;;;;;11.80;99.90;;;;;;4275232;33;38633;-82
2022/01/02 08:46:17;;;;;;;;;;;11.80;99.90;;;;;;4261838;33;41222;-82
2022/01/02 08:48:44;;;;;;;;;;;11.80;99.90;;;;;;4275567;33;20010;-81
2022/01/02 08:51:12;;;;;;;;;;;11.80;99.90;;;;;;4261920;33;41510;-81
2022/01/02 08:53:39;;;;;;;;;;;11.90;99.90;;;;;;4274883;33;44258;-82
2022/01/02 08:56:07;;;;;;;;;;;11.90;99.90;;;;;;4262977;33;20392;-82
2022/01/02 08:58:36;;;;;;;;;;;11.90;99.90;;;;;;4274960;33;34075;-82
2022/01/02 09:01:03;;;;;;;;;;;11.90;99.90;;;;;;4274895;33;44428;-81
2022/01/02 09:03:33;;;;;;;;;;;11.90;99.90;;;;;;4261806;33;43241;-82
2022/01/02 09:06:06;;;;;;;;;;;11.90;99.90;;;;;;4262747;33;33228;-82
2022/01/02 09:08:33;;;;;;;;;;;11.90;99.90;;;;;;4274827;33;40854;-81
2022/01/02 09:11:00;;;;;;;;;;;11.90;99.90;;;;;;4261734;33;43903;-82
2022/01/02 09:13:27;;;;;;;;;;;11.90;99.90;;;;;;4263063;33;20322;-81
2022/01/02 09:15:55;;;;;;;;;;;11.90;99.90;;;;;;4262634;33;20405;-82
2022/01/02 09:18:22;;;;;;;;;;;11.90;99.90;;;;;;4262937;33;20007;-81
2022/01/02 09:20:49;;;;;;;;;;;11.90;99.90;;;;;;4274632;33;42764;-83
2022/01/02 09:23:16;;;;;;;;;;;11.90;99.90;;;;;;4274090;33;45189;-82
2022/01/02 09:25:46;;;;;;;;;;;11.90;99.90;;;;;;4275808;33;20070;-82
2022/01/02 09:28:19;;;;;;;;;;;11.90;99.90;;;;;;4275807;33;20017;-81
2022/01/02 09:30:46;;;;;;;;;;;11.90;99.90;;;;;;4261849;33;42320;-81
2022/01/02 09:33:17;;;;;;;;;;;11.90;99.90;;;;;;4261711;33;43608;-81
2022/01/02 09:35:45;;;;;;;;;;;11.90;99.90;;;;;;4274168;33;37894;-82
2022/01/02 09:38:12;;;;;;;;;;;11.90;99.90;;;;;;4274262;33;35470;-82
2022/01/02 09:40:42;;;;;;;;;;;11.90;99.90;;;;;;4274440;33;42271;-82
2022/01/02 09:43:09;;;;;;;;;;;11.90;99.90;;;;;;4262410;33;20003;-81
2022/01/02 09:45:38;;;;;;;;;;;11.90;99.90;;;;;;4261203;33;36305;-81
2022/01/02 09:48:08;;;;;;;;;;;11.80;99.90;;;;;;4261605;33;37125;-82
2022/01/02 09:50:37;;;;;;;;;;;11.90;99.90;;;;;;4261363;33;43411;-82
2022/01/02 09:53:05;;;;;;;;;;;11.90;99.90;;;;;;4272717;33;44569;-81
2022/01/02 09:55:32;;;;;;;;;;;11.90;99.90;;;;;;4274090;33;44201;-81
2022/01/02 09:58:00;;;;;;;;;;;11.90;99.90;;;;;;4261371;33;44907;-82
2022/01/02 10:00:28;;;;;;;;;;;11.90;99.90;;;;;;4261772;33;20376;-83
2022/01/02 10:02:59;;;;;;;;;;;11.90;99.90;;;;;;4273583;33;35861;-82
2022/01/02 10:05:28;;;;;;;;;;;11.90;99.90;;;;;;4261291;33;36477;-82
2022/01/02 10:07:56;;;;;;;;;;;11.90;99.90;;;;;;4260874;33;39968;-82
2022/01/02 10:10:33;;;;;;;;;;;11.90;99.90;;;;;;4262272;33;20018;-81
2022/01/02 10:13:03;;;;;;;;;;;11.90;99.90;;;;;;4261724;33;20096;-82
2022/01/02 10:15:31;;;;;;;;;;;11.90;99.90;;;;;;4274570;33;20443;-82
2022/01/02 10:18:08;;;;;;;;;;;11.90;99.90;;;;;;4274153;33;20076;-82
2022/01/02 10:20:37;;;;;;;;;;;11.90;99.90;;;;;;4261860;33;20058;-83
2022/01/02 10:23:24;;;;;;;;;;;11.90;99.90;;;;;;4261657;33;21183;-83
2022/01/02 10:25:55;;;;;;;;;;;11.90;99.90;;;;;;4260904;33;42546;-82
2022/01/02 10:28:35;;;;;;;;;;;11.90;99.90;;;;;;4260434;33;45767;-82
2022/01/02 10:31:08;;;;;;;;;;;11.90;99.90;;;;;;4273087;33;42283;-81
2022/01/02 10:33:51;;;;;;;;;;;11.90;99.90;;;;;;4260311;33;46073;-83
2022/01/02 10:36:25;;;;;;;;;;;12.00;99.90;;;;;;4260516;33;45008;-82
2022/01/02 10:38:58;;;;;;;;;;;11.90;99.90;;;;;;4261494;33;34858;-82
2022/01/02 10:41:29;;;;;;;;;;;12.00;99.90;;;;;;4261466;33;20018;-82
2022/01/02 10:44:15;;;;;;;;;;;11.90;99.90;;;;;;4273233;33;44647;-81
2022/01/02 10:47:15;;;;;;;;;;;12.00;99.90;;;;;;4273845;33;25131;-81
2022/01/02 10:49:46;;;;;;;;;;;12.00;99.90;;;;;;4249709;33;20076;-83
2022/01/02 10:52:21;;;;;;;;;;;12.00;99.90;;;;;;4261146;33;20010;-82
2022/01/02 10:54:49;;;;;;;;;;;12.00;99.90;;;;;;4261691;33;20007;-82
2022/01/02 10:57:16;;;;;;;;;;;12.00;99.90;;;;;;4274082;33;20006;-82
2022/01/02 10:59:44;;;;;;;;;;;12.00;99.90;;;;;;4273589;33;20030;-81
2022/01/02 11:02:12;;;;;;;;;;;12.00;99.90;;;;;;4260694;33;20011;-81
2022/01/02 11:04:51;;;;;;;;;;;12.00;99.90;;;;;;4273667;33;20022;-81
2022/01/02 11:07:21;;;;;;;;;;;12.00;99.90;;;;;;4274416;33;20023;-82
2022/01/02 11:09:52;;;;;;;;;;;12.00;99.90;;;;;;4261002;33;20013;-82
2022/01/02 11:12:26;;;;;;;;;;;12.00;99.90;;;;;;4274534;33;20059;-82
2022/01/02 11:14:53;;;;;;;;;;;12.00;99.90;;;;;;4274069;33;20069;-81
2022/01/02 11:17:21;;;;;;;;;;;12.00;99.90;;;;;;4260976;33;20007;-82
2022/01/02 11:19:48;;;;;;;;;;;12.00;99.90;;;;;;4261139;33;20019;-81
2022/01/02 11:22:34;;;;;;;;;;;12.00;99.90;;;;;;4274056;33;20015;-82
2022/01/02 11:25:07;;;;;;;;;;;12.00;99.90;;;;;;4273963;33;20003;-82
2022/01/02 11:27:47;;;;;;;;;;;12.00;99.90;;;;;;4273972;33;20014;-82
2022/01/02 11:30:33;;;;;;;;;;;12.00;99.90;;;;;;4273909;33;20430;-82
2022/01/02 11:33:08;;;;;;;;;;;12.00;99.90;;;;;;4260956;33;20010;-82
2022/01/02 11:35:36;;;;;;;;;;;12.00;99.90;;;;;;4260859;33;20418;-82
2022/01/02 11:38:04;;;;;;;;;;;12.00;99.90;;;;;;4273695;33;20007;-83
2022/01/02 11:40:51;;;;;;;;;;;12.00;99.90;;;;;;4273825;33;20007;-82
2022/01/02 11:43:47;;;;;;;;;;;12.00;99.90;;;;;;4273568;33;20021;-82
2022/01/02 11:46:22;;;;;;;;;;;12.10;99.90;;;;;;4260896;33;19995;-82
2022/01/02 11:49:05;;;;;;;;;;;12.10;99.90;;;;;;4261067;33;20003;-81
2022/01/02 11:51:50;;;;;;;;;;;12.10;99.90;;;;;;4260566;33;20014;-82
2022/01/02 11:54:35;;;;;;;;;;;12.10;99.90;;;;;;4261243;33;20113;-82
2022/01/02 11:57:11;;;;;;;;;;;12.10;99.90;;;;;;4261039;33;20018;-82
2022/01/02 11:59:38;;;;;;;;;;;12.10;99.90;;;;;;4261851;33;20004;-82
2022/01/02 12:02:10;;;;;;;;;;;12.10;99.90;;;;;;4276400;33;20094;-82
2022/01/02 12:04:56;;;;;;;;;;;12.20;99.90;;;;;;4276435;33;20011;-83
2022/01/02 12:07:37;;;;;;;;;;;12.10;99.90;;;;;;4263701;33;20089;-83
2022/01/02 12:10:17;;;;;;;;;;;12.20;99.90;;;;;;4263708;33;20105;-82
2022/01/02 12:12:59;;;;;;;;;;;12.10;99.90;;;;;;4263144;33;28735;-82
2022/01/02 12:15:35;;;;;;;;;;;12.10;99.90;;;;;;4263920;33;20003;-82
2022/01/02 12:18:11;;;;;;;;;;;12.10;99.90;;;;;;4263180;33;20432;-82
2022/01/02 12:20:51;;;;;;;;;;;12.10;99.90;;;;;;4263481;33;20346;-82
2022/01/02 12:23:34;;;;;;;;;;;12.10;99.90;;;;;;4276598;33;20062;-82
2022/01/02 12:26:03;;;;;;;;;;;12.10;99.90;;;;;;4276438;33;20007;-83
2022/01/02 12:28:36;;;;;;;;;;;12.10;99.90;;;;;;4263213;33;20058;-82
2022/01/02 12:31:03;;;;;;;;;;;12.10;99.90;;;;;;4262911;33;20472;-83
2022/01/02 12:33:31;;;;;;;;;;;12.10;99.90;;;;;;4263641;33;20029;-83
2022/01/02 12:36:18;;;;;;;;;;;12.20;99.90;;;;;;4276056;33;20045;-82
2022/01/02 12:38:49;;;;;;;;;;;12.10;99.90;;;;;;4263395;33;20049;-82
2022/01/02 12:41:17;;;;;;;;;;;12.10;99.90;;;;;;4263095;33;20009;-82
2022/01/02 12:43:54;;;;;;;;;;;12.20;99.90;;;;;;4276265;33;20008;-83
2022/01/02 12:46:37;;;;;;;;;;;12.10;99.90;;;;;;4263287;33;20018;-83
2022/01/02 12:49:12;;;;;;;;;;;12.20;99.90;;;;;;4263017;33;20368;-82
2022/01/02 12:51:43;;;;;;;;;;;12.20;99.90;;;;;;4275457;33;20018;-82
2022/01/02 12:54:11;;;;;;;;;;;12.20;99.90;;;;;;4276318;33;20011;-83
2022/01/02 12:56:43;;;;;;;;;;;12.30;99.90;;;;;;4263275;33;19999;-82
2022/01/02 12:59:14;;;;;;;;;;;12.30;99.90;;;;;;4276129;33;20404;-82
2022/01/02 13:01:52;;;;;;;;;;;12.30;99.90;;;;;;4262620;33;20019;-82
2022/01/02 13:04:22;;;;;;;;;;;12.30;99.90;;;;;;4262972;33;20018;-82
2022/01/02 13:06:50;;;;;;;;;;;12.30;99.90;;;;;;4263008;33;20023;-83
2022/01/02 13:09:24;;;;;;;;;;;12.30;99.90;;;;;;4262509;33;20013;-83
2022/01/02 13:11:52;;;;;;;;;;;12.30;99.90;;;;;;4274914;33;20025;-81
2022/01/02 13:14:35;;;;;;;;;;;12.30;99.90;;;;;;4263012;33;20018;-82
2022/01/02 13:17:05;;;;;;;;;;;12.30;99.90;;;;;;4263082;33;20439;-83
2022/01/02 13:19:35;;;;;;;;;;;12.30;99.90;;;;;;4262643;33;20504;-82
2022/01/02 13:22:02;;;;;;;;;;;12.30;99.90;;;;;;4262924;33;20003;-82
2022/01/02 13:24:30;;;;;;;;;;;12.30;99.90;;;;;;4262865;33;20007;-82
2022/01/02 13:26:58;;;;;;;;;;;12.40;99.90;;;;;;4262496;33;20022;-83
2022/01/02 13:29:26;;;;;;;;;;;12.40;99.90;;;;;;4262010;33;20007;-82
2022/01/02 13:31:54;;;;;;;;;;;12.30;99.90;;;;;;4262225;33;20443;-82
2022/01/02 13:34:22;;;;;;;;;;;12.30;99.90;;;;;;4275475;33;20003;-81
2022/01/02 13:36:53;;;;;;;;;;;12.30;99.90;;;;;;4262461;33;20015;-80
2022/01/02 13:39:36;;;;;;;;;;;12.30;99.90;;;;;;4262588;33;20389;-83
2022/01/02 13:42:06;;;;;;;;;;;12.30;99.90;;;;;;4262514;33;20018;-82
2022/01/02 13:44:41;;;;;;;;;;;12.30;99.90;;;;;;4261804;33;19995;-82
2022/01/02 13:47:08;;;;;;;;;;;12.30;99.90;;;;;;4262382;33;20094;-83
2022/01/02 13:49:43;;;;;;;;;;;12.30;99.90;;;;;;4274691;33;20006;-83
2022/01/02 13:52:10;;;;;;;;;;;12.30;99.90;;;;;;4274766;33;20408;-82
2022/01/02 13:54:42;;;;;;;;;;;12.40;99.90;;;;;;4274811;33;21050;-83
2022/01/02 13:57:11;;;;;;;;;;;12.40;99.90;;;;;;4261829;33;19991;-83
2022/01/02 13:59:38;;;;;;;;;;;12.40;99.90;;;;;;4261631;33;20476;-82
2022/01/02 14:02:05;;;;;;;;;;;12.40;99.90;;;;;;4261780;33;20078;-82
2022/01/02 14:04:51;;;;;;;;;;;12.40;99.90;;;;;;4261267;33;36935;-82
2022/01/02 14:07:18;;;;;;;;;;;12.40;99.90;;;;;;4274820;33;20389;-83
2022/01/02 14:09:51;;;;;;;;;;;12.40;99.90;;;;;;4274515;33;20511;-82
2022/01/02 14:12:23;;;;;;;;;;;12.40;99.90;;;;;;4262018;33;20002;-81
2022/01/02 14:15:01;;;;;;;;;;;12.40;99.90;;;;;;4262460;33;20014;-82
2022/01/02 14:17:33;;;;;;;;;;;12.40;99.90;;;;;;4249646;33;30695;-81
2022/01/02 14:20:03;;;;;;;;;;;12.40;99.90;;;;;;4261886;33;20021;-81
2022/01/02 14:22:35;;;;;;;;;;;12.40;99.90;;;;;;4274529;33;20007;-82
2022/01/02 14:25:06;;;;;;;;;;;12.40;99.90;;;;;;4260838;33;45884;-83
2022/01/02 14:27:34;;;;;;;;;;;12.40;99.90;;;;;;4273839;33;35258;-82
2022/01/02 14:30:04;;;;;;;;;;;12.40;99.90;;;;;;4260633;33;34028;-83
2022/01/02 14:32:58;;;;;;;;;;;12.40;99.90;;;;;;4262495;33;20070;-83
2022/01/02 14:42:51;;;;;;;;;;;12.40;99.90;;;;;;4241824;33;20039;-84
2022/01/02 14:45:34;;;;;;;;;;;12.40;99.90;;;;;;4273760;33;20121;-84
2022/01/02 14:52:59;;;;;;;;;;;12.40;99.90;;;;;;4237186;33;20572;-84